createdAt,value
2023-03-23T00:00:16.688Z,65.67
2023-03-23T00:01:16.658Z,65.67
2023-03-23T00:02:16.670Z,65.67
2023-03-23T00:03:16.632Z,65.88
2023-03-23T00:04:16.623Z,65.06
2023-03-23T00:05:16.648Z,64.96
2023-03-23T00:06:16.582Z,65.06
2023-03-23T00:07:16.572Z,65.36
2023-03-23T00:08:16.590Z,65.06
2023-03-23T00:09:16.556Z,64.42
2023-03-23T00:10:16.538Z,64.93
2023-03-23T00:11:16.515Z,65.06
2023-03-23T00:12:16.527Z,64.96
2023-03-23T00:13:16.513Z,64.76
2023-03-23T00:14:16.478Z,64.62
2023-03-23T00:15:16.511Z,64.76
2023-03-23T00:16:16.449Z,64.52
2023-03-23T00:17:16.436Z,64.83
2023-03-23T00:18:16.448Z,64.12
2023-03-23T00:19:16.446Z,64.52
2023-03-23T00:20:16.441Z,64.83
2023-03-23T00:21:16.412Z,65.47
2023-03-23T00:22:16.377Z,65.03
2023-03-23T00:23:16.358Z,64.96
2023-03-23T00:24:16.348Z,65.16
2023-03-23T00:25:16.411Z,65.06
2023-03-23T00:26:16.315Z,65.64
2023-03-23T00:27:16.301Z,65.36
2023-03-23T00:28:16.320Z,65.36
2023-03-23T00:29:16.272Z,65.03
2023-03-23T00:30:16.291Z,64.83
2023-03-23T00:31:16.274Z,64.93
2023-03-23T00:32:16.241Z,64.93
2023-03-23T00:33:16.234Z,64.93
2023-03-23T00:34:16.231Z,64.73
2023-03-23T00:35:16.352Z,64.73
2023-03-23T00:36:16.191Z,65.44
2023-03-23T00:37:16.220Z,65.23
2023-03-23T00:38:16.181Z,65.13
2023-03-23T00:39:16.149Z,65.44
2023-03-23T00:40:16.159Z,65.13
2023-03-23T00:41:16.123Z,65.33
2023-03-23T00:42:16.130Z,65.54
2023-03-23T00:43:16.154Z,65.23
2023-03-23T00:44:16.076Z,65.03
2023-03-23T00:45:16.080Z,64.90
2023-03-23T00:46:16.078Z,65.44
2023-03-23T00:47:16.057Z,65.74
2023-03-23T00:48:16.068Z,65.94
2023-03-23T00:49:16.027Z,65.67
2023-03-23T00:50:16.336Z,65.36
2023-03-23T00:51:15.986Z,65.54
2023-03-23T00:52:16.028Z,65.33
2023-03-23T00:53:16.004Z,65.03
2023-03-23T00:54:15.955Z,65.36
2023-03-23T00:55:15.956Z,65.47
2023-03-23T00:56:15.957Z,65.67
2023-03-23T00:57:16.000Z,65.54
2023-03-23T00:58:15.924Z,64.93
2023-03-23T00:59:15.936Z,65.47
2023-03-23T01:00:15.894Z,65.33
2023-03-23T01:01:15.893Z,65.03
2023-03-23T01:02:15.855Z,65.84
2023-03-23T01:03:15.869Z,66.28
2023-03-23T01:04:15.854Z,66.99
2023-03-23T01:05:15.807Z,66.46
2023-03-23T01:06:15.814Z,66.49
2023-03-23T01:07:15.806Z,66.28
2023-03-23T01:08:15.794Z,66.28
2023-03-23T01:09:15.755Z,66.38
2023-03-23T01:10:15.780Z,67.40
2023-03-23T01:11:15.731Z,68.35
2023-03-23T01:12:15.707Z,69.46
2023-03-23T01:13:15.751Z,68.65
2023-03-23T01:14:15.696Z,69.16
2023-03-23T01:15:15.695Z,69.97
2023-03-23T01:16:15.666Z,70.51
2023-03-23T01:17:15.642Z,70.48
2023-03-23T01:18:15.634Z,69.60
2023-03-23T01:19:15.623Z,69.90
2023-03-23T01:20:15.626Z,69.29
2023-03-23T01:21:15.595Z,69.19
2023-03-23T01:22:15.612Z,68.88
2023-03-23T01:23:15.576Z,69.06
2023-03-23T01:24:15.572Z,68.75
2023-03-23T01:25:15.558Z,68.55
2023-03-23T01:26:15.533Z,68.41
2023-03-23T01:27:15.519Z,68.44
2023-03-23T01:28:15.533Z,68.75
2023-03-23T01:29:15.512Z,68.24
2023-03-23T01:30:15.471Z,68.52
2023-03-23T01:31:15.489Z,68.04
2023-03-23T01:32:15.453Z,69.06
2023-03-23T01:33:15.432Z,68.44
2023-03-23T01:34:15.479Z,68.35
2023-03-23T01:35:15.399Z,68.55
2023-03-23T01:36:15.397Z,68.44
2023-03-23T01:37:15.417Z,69.06
2023-03-23T01:38:15.369Z,68.14
2023-03-23T01:39:15.386Z,69.06
2023-03-23T01:40:15.366Z,68.96
2023-03-23T01:41:15.335Z,67.97
2023-03-23T01:42:15.309Z,67.53
2023-03-23T01:43:15.320Z,67.13
2023-03-23T01:44:15.294Z,67.22
2023-03-23T01:45:15.292Z,66.69
2023-03-23T01:46:15.305Z,66.58
2023-03-23T01:47:15.252Z,66.89
2023-03-23T01:48:15.242Z,66.38
2023-03-23T01:49:15.284Z,66.89
2023-03-23T01:50:15.223Z,66.28
2023-03-23T01:51:15.210Z,66.38
2023-03-23T01:52:15.211Z,66.38
2023-03-23T01:53:15.169Z,66.18
2023-03-23T01:54:15.162Z,66.08
2023-03-23T01:55:15.169Z,66.08
2023-03-23T01:56:15.156Z,66.15
2023-03-23T01:57:15.125Z,66.25
2023-03-23T01:58:15.146Z,66.25
2023-03-23T01:59:15.109Z,66.25
2023-03-23T02:00:15.085Z,66.55
2023-03-23T02:01:15.090Z,67.16
2023-03-23T02:02:15.054Z,67.80
2023-03-23T02:03:17.137Z,68.11
2023-03-23T02:04:15.047Z,68.08
2023-03-23T02:05:15.036Z,69.06
2023-03-23T02:06:15.004Z,69.70
2023-03-23T02:07:15.014Z,70.58
2023-03-23T02:08:14.972Z,70.72
2023-03-23T02:09:14.973Z,70.82
2023-03-23T02:10:15.028Z,71.33
2023-03-23T02:11:22.181Z,71.53
2023-03-23T02:12:14.950Z,71.87
2023-03-23T02:13:14.907Z,72.17
2023-03-23T02:14:14.954Z,72.34
2023-03-23T02:15:14.914Z,72.28
2023-03-23T02:16:14.912Z,72.99
2023-03-23T02:17:14.882Z,73.06
2023-03-23T02:18:14.869Z,72.65
2023-03-23T02:19:14.910Z,73.10
2023-03-23T02:20:14.819Z,73.10
2023-03-23T02:21:14.847Z,72.89
2023-03-23T02:22:14.787Z,73.40
2023-03-23T02:23:14.765Z,74.41
2023-03-23T02:24:14.770Z,74.86
2023-03-23T02:25:14.771Z,74.96
2023-03-23T02:26:14.753Z,75.47
2023-03-23T02:27:14.753Z,75.67
2023-03-23T02:28:14.762Z,75.57
2023-03-23T02:29:14.682Z,75.67
2023-03-23T02:30:14.709Z,75.47
2023-03-23T02:31:14.705Z,75.78
2023-03-23T02:32:14.667Z,75.06
2023-03-23T02:33:14.628Z,74.79
2023-03-23T02:34:14.655Z,76.22
2023-03-23T02:35:14.622Z,75.47
2023-03-23T02:36:14.601Z,74.96
2023-03-23T02:37:14.598Z,74.76
2023-03-23T02:38:14.580Z,74.65
2023-03-23T02:39:14.551Z,74.86
2023-03-23T02:40:14.575Z,74.96
2023-03-23T02:41:14.562Z,73.94
2023-03-23T02:42:15.501Z,74.15
2023-03-23T02:43:14.519Z,74.21
2023-03-23T02:44:14.505Z,73.50
2023-03-23T02:45:14.491Z,73.54
2023-03-23T02:46:14.485Z,73.64
2023-03-23T02:47:14.504Z,74.72
2023-03-23T02:48:14.438Z,76.08
2023-03-23T02:49:14.425Z,75.78
2023-03-23T02:50:14.445Z,75.98
2023-03-23T02:51:14.406Z,77.14
2023-03-23T02:52:14.386Z,78.66
2023-03-23T02:53:14.419Z,78.87
2023-03-23T02:54:14.354Z,79.21
2023-03-23T02:55:14.344Z,79.32
2023-03-23T02:56:14.421Z,79.32
2023-03-23T02:57:14.310Z,79.52
2023-03-23T02:58:14.295Z,80.43
2023-03-23T02:59:14.313Z,80.74
2023-03-23T03:00:14.274Z,81.45
2023-03-23T03:01:14.285Z,82.31
2023-03-23T03:02:14.305Z,82.92
2023-03-23T03:03:14.231Z,83.63
2023-03-23T03:04:14.228Z,83.33
2023-03-23T03:05:14.243Z,83.02
2023-03-23T03:06:14.193Z,83.53
2023-03-23T03:07:14.202Z,83.98
2023-03-23T03:08:14.177Z,84.69
2023-03-23T03:09:14.150Z,85.24
2023-03-23T03:10:17.314Z,85.65
2023-03-23T03:11:14.141Z,85.86
2023-03-23T03:12:14.134Z,85.86
2023-03-23T03:13:14.092Z,86.41
2023-03-23T03:14:14.106Z,86.36
2023-03-23T03:15:14.060Z,86.41
2023-03-23T03:16:14.060Z,86.82
2023-03-23T03:17:14.103Z,87.02
2023-03-23T03:18:14.038Z,87.84
2023-03-23T03:19:14.859Z,87.94
2023-03-23T03:20:14.077Z,88.04
2023-03-23T03:21:14.006Z,88.14
2023-03-23T03:22:13.997Z,88.65
2023-03-23T03:23:13.970Z,88.85
2023-03-23T03:24:13.974Z,89.47
2023-03-23T03:25:17.096Z,88.96
2023-03-23T03:26:13.950Z,89.78
2023-03-23T03:27:13.949Z,90.19
2023-03-23T03:28:13.902Z,89.88
2023-03-23T03:29:13.890Z,90.08
2023-03-23T03:30:13.873Z,90.19
2023-03-23T03:31:13.878Z,90.94
2023-03-23T03:32:13.845Z,91.00
2023-03-23T03:33:13.839Z,91.25
2023-03-23T03:34:13.821Z,91.25
2023-03-23T03:35:13.809Z,91.15
2023-03-23T03:36:13.932Z,91.56
2023-03-23T03:37:13.842Z,91.56
2023-03-23T03:38:13.775Z,91.56
2023-03-23T03:39:13.799Z,91.56
2023-03-23T03:40:13.746Z,92.27
2023-03-23T03:41:13.728Z,92.37
2023-03-23T03:42:13.760Z,92.07
2023-03-23T03:43:13.716Z,92.17
2023-03-23T03:44:13.695Z,92.47
2023-03-23T03:45:13.680Z,92.83
2023-03-23T03:46:13.671Z,93.50
2023-03-23T03:47:13.696Z,93.74
2023-03-23T03:48:13.636Z,93.74
2023-03-23T03:49:13.653Z,93.95
2023-03-23T03:50:13.631Z,94.42
2023-03-23T03:51:13.604Z,94.46
2023-03-23T03:52:13.654Z,94.67
2023-03-23T03:53:13.575Z,94.67
2023-03-23T03:54:13.559Z,95.07
2023-03-23T03:55:13.564Z,95.48
2023-03-23T03:56:13.543Z,95.79
2023-03-23T03:57:13.551Z,96.04
2023-03-23T03:58:13.509Z,96.55
2023-03-23T03:59:21.576Z,96.45
2023-03-23T04:00:13.479Z,96.55
2023-03-23T04:01:13.522Z,96.86
2023-03-23T04:02:13.495Z,96.75
2023-03-23T04:03:13.475Z,96.96
2023-03-23T04:04:13.457Z,96.96
2023-03-23T04:05:13.435Z,97.57
2023-03-23T04:06:13.423Z,97.88
2023-03-23T04:07:13.431Z,97.98
2023-03-23T04:08:13.369Z,97.98
2023-03-23T04:09:13.397Z,97.98
2023-03-23T04:10:13.343Z,98.08
2023-03-23T04:11:13.330Z,97.78
2023-03-23T04:12:13.348Z,97.53
2023-03-23T04:13:13.343Z,97.88
2023-03-23T04:14:13.312Z,97.98
2023-03-23T04:15:13.283Z,98.08
2023-03-23T04:16:13.297Z,98.39
2023-03-23T04:17:13.296Z,98.08
2023-03-23T04:18:13.243Z,98.39
2023-03-23T04:19:13.225Z,98.70
2023-03-23T04:20:13.211Z,98.70
2023-03-23T04:21:13.246Z,98.60
2023-03-23T04:22:13.205Z,98.70
2023-03-23T04:23:13.183Z,98.49
2023-03-23T04:24:23.054Z,98.55
2023-03-23T04:25:13.157Z,98.35
2023-03-23T04:26:13.181Z,98.24
2023-03-23T04:27:13.138Z,98.29
2023-03-23T04:28:13.109Z,98.39
2023-03-23T04:29:13.134Z,98.39
2023-03-23T04:30:13.081Z,98.29
2023-03-23T04:31:13.070Z,98.70
2023-03-23T04:32:13.073Z,98.80
2023-03-23T04:33:13.065Z,99.01
2023-03-23T04:34:13.035Z,98.90
2023-03-23T04:35:14.185Z,99.11
2023-03-23T04:36:13.046Z,99.41
2023-03-23T04:37:13.008Z,99.31
2023-03-23T04:38:12.997Z,99.62
2023-03-23T04:39:13.011Z,99.82
2023-03-23T04:40:12.953Z,99.93
2023-03-23T04:41:12.935Z,99.99
2023-03-23T04:42:12.948Z,99.99
2023-03-23T04:43:12.968Z,99.99
2023-03-23T04:44:12.890Z,99.99
2023-03-23T04:45:12.887Z,99.99
2023-03-23T04:46:12.946Z,99.93
2023-03-23T04:47:12.877Z,99.62
2023-03-23T04:48:12.868Z,99.82
2023-03-23T04:49:12.844Z,99.99
2023-03-23T04:50:12.892Z,99.99
2023-03-23T04:51:12.802Z,99.99
2023-03-23T04:52:12.849Z,99.99
2023-03-23T04:53:12.875Z,99.99
2023-03-23T04:54:12.775Z,99.99
2023-03-23T04:55:12.833Z,99.99
2023-03-23T04:56:12.753Z,99.99
2023-03-23T04:57:12.725Z,99.99
2023-03-23T04:58:12.773Z,99.99
2023-03-23T04:59:12.721Z,99.99
2023-03-23T05:00:12.674Z,99.99
2023-03-23T05:01:12.676Z,99.99
2023-03-23T05:02:14.507Z,99.99
2023-03-23T05:03:12.675Z,99.99
2023-03-23T05:04:12.633Z,99.99
2023-03-23T05:05:12.621Z,99.99
2023-03-23T05:06:12.603Z,99.99
2023-03-23T05:07:12.613Z,99.99
2023-03-23T05:08:12.601Z,99.99
2023-03-23T05:09:12.591Z,99.99
2023-03-23T05:10:12.498Z,99.99
2023-03-23T05:11:12.491Z,99.99
2023-03-23T05:12:12.469Z,99.99
2023-03-23T05:13:12.491Z,99.99
2023-03-23T05:14:12.441Z,99.99
2023-03-23T05:15:12.436Z,99.99
2023-03-23T05:16:12.415Z,99.99
2023-03-23T05:17:12.441Z,99.99
2023-03-23T05:18:12.389Z,99.99
2023-03-23T05:19:18.366Z,99.99
2023-03-23T05:20:12.355Z,99.99
2023-03-23T05:21:12.346Z,99.99
2023-03-23T05:22:12.355Z,99.99
2023-03-23T05:23:12.338Z,99.99
2023-03-23T05:24:12.375Z,99.99
2023-03-23T05:25:12.305Z,99.99
2023-03-23T05:26:12.315Z,99.93
2023-03-23T05:27:12.312Z,99.99
2023-03-23T05:28:12.280Z,99.99
2023-03-23T05:29:12.270Z,99.99
2023-03-23T05:30:12.229Z,99.99
2023-03-23T05:31:12.211Z,99.99
2023-03-23T05:32:12.232Z,99.99
2023-03-23T05:33:12.219Z,99.99
2023-03-23T05:34:12.176Z,99.99
2023-03-23T05:35:12.214Z,99.99
2023-03-23T05:36:12.171Z,99.99
2023-03-23T05:37:12.142Z,99.99
2023-03-23T05:38:12.133Z,99.99
2023-03-23T05:39:12.124Z,99.99
2023-03-23T05:40:12.108Z,99.93
2023-03-23T05:41:12.091Z,99.93
2023-03-23T05:42:12.088Z,99.99
2023-03-23T05:43:12.148Z,99.72
2023-03-23T05:44:12.065Z,99.72
2023-03-23T05:45:12.048Z,99.27
2023-03-23T05:46:12.016Z,99.21
2023-03-23T05:47:12.044Z,99.21
2023-03-23T05:48:12.006Z,99.21
2023-03-23T05:49:12.013Z,98.90
2023-03-23T05:50:11.971Z,98.90
2023-03-23T05:51:11.943Z,99.31
2023-03-23T05:52:11.937Z,99.21
2023-03-23T05:53:12.649Z,99.21
2023-03-23T05:54:11.921Z,99.52
2023-03-23T05:55:11.906Z,99.62
2023-03-23T05:56:11.904Z,99.41
2023-03-23T05:57:11.894Z,99.31
2023-03-23T05:58:11.878Z,99.06
2023-03-23T05:59:11.929Z,98.96
2023-03-23T06:00:11.822Z,99.06
2023-03-23T06:01:11.834Z,98.96
2023-03-23T06:02:11.804Z,98.90
2023-03-23T06:03:11.793Z,99.21
2023-03-23T06:04:11.817Z,99.06
2023-03-23T06:05:11.798Z,98.96
2023-03-23T06:06:11.782Z,98.86
2023-03-23T06:07:11.737Z,98.65
2023-03-23T06:08:11.752Z,98.55
2023-03-23T06:09:12.026Z,98.45
2023-03-23T06:10:11.700Z,98.24
2023-03-23T06:11:11.730Z,97.63
2023-03-23T06:12:11.687Z,97.94
2023-03-23T06:13:11.664Z,98.14
2023-03-23T06:14:12.350Z,97.83
2023-03-23T06:15:11.637Z,97.89
2023-03-23T06:16:11.624Z,97.33
2023-03-23T06:17:11.630Z,97.63
2023-03-23T06:18:11.610Z,97.58
2023-03-23T06:19:11.578Z,97.22
2023-03-23T06:20:11.590Z,97.33
2023-03-23T06:21:11.602Z,97.17
2023-03-23T06:22:11.532Z,97.17
2023-03-23T06:23:11.552Z,97.49
2023-03-23T06:24:11.523Z,97.17
2023-03-23T06:25:11.518Z,97.33
2023-03-23T06:26:11.487Z,97.42
2023-03-23T06:27:12.689Z,97.38
2023-03-23T06:28:11.486Z,97.08
2023-03-23T06:29:11.442Z,96.77
2023-03-23T06:30:11.463Z,96.97
2023-03-23T06:31:11.421Z,96.97
2023-03-23T06:32:11.415Z,96.97
2023-03-23T06:33:11.445Z,97.13
2023-03-23T06:34:11.392Z,96.56
2023-03-23T06:35:11.376Z,96.83
2023-03-23T06:36:11.451Z,96.77
2023-03-23T06:37:11.373Z,96.97
2023-03-23T06:38:11.342Z,97.17
2023-03-23T06:39:11.340Z,97.28
2023-03-23T06:40:11.352Z,97.49
2023-03-23T06:41:11.310Z,97.28
2023-03-23T06:42:11.307Z,97.28
2023-03-23T06:43:11.307Z,97.49
2023-03-23T06:44:11.262Z,97.49
2023-03-23T06:45:11.272Z,97.89
2023-03-23T06:46:11.257Z,97.99
2023-03-23T06:47:11.214Z,98.45
2023-03-23T06:48:11.219Z,98.65
2023-03-23T06:49:11.246Z,98.96
2023-03-23T06:50:11.172Z,99.37
2023-03-23T06:51:11.184Z,99.47
2023-03-23T06:52:11.146Z,99.47
2023-03-23T06:53:11.135Z,99.88
2023-03-23T06:54:11.151Z,99.68
2023-03-23T06:55:11.122Z,99.88
2023-03-23T06:56:11.107Z,99.99
2023-03-23T06:57:11.105Z,99.99
2023-03-23T06:58:11.080Z,99.99
2023-03-23T06:59:11.182Z,99.99
2023-03-23T07:00:11.055Z,99.99
2023-03-23T07:01:11.024Z,99.99
2023-03-23T07:02:11.050Z,99.99
2023-03-23T07:03:11.004Z,99.99
2023-03-23T07:04:11.086Z,99.99
2023-03-23T07:05:10.973Z,99.98
2023-03-23T07:06:10.983Z,99.98
2023-03-23T07:07:10.952Z,99.93
2023-03-23T07:08:10.924Z,99.84
2023-03-23T07:09:11.069Z,99.57
2023-03-23T07:10:10.964Z,99.99
2023-03-23T07:11:11.357Z,99.98
2023-03-23T07:12:10.906Z,99.84
2023-03-23T07:13:10.884Z,99.73
2023-03-23T07:14:10.897Z,99.93
2023-03-23T07:15:10.841Z,99.52
2023-03-23T07:16:10.824Z,99.73
2023-03-23T07:17:11.051Z,99.84
2023-03-23T07:18:10.828Z,99.84
2023-03-23T07:19:10.804Z,99.84
2023-03-23T07:20:10.894Z,99.32
2023-03-23T07:21:10.796Z,99.18
2023-03-23T07:22:10.755Z,98.86
2023-03-23T07:23:10.798Z,98.40
2023-03-23T07:24:10.780Z,98.56
2023-03-23T07:25:10.730Z,98.66
2023-03-23T07:26:10.706Z,98.97
2023-03-23T07:27:10.707Z,98.86
2023-03-23T07:28:10.691Z,98.86
2023-03-23T07:29:10.687Z,98.97
2023-03-23T07:30:10.674Z,98.86
2023-03-23T07:31:10.625Z,98.77
2023-03-23T07:32:10.634Z,98.97
2023-03-23T07:33:10.628Z,98.97
2023-03-23T07:34:10.678Z,98.66
2023-03-23T07:35:10.966Z,99.07
2023-03-23T07:36:10.634Z,99.07
2023-03-23T07:37:10.556Z,99.11
2023-03-23T07:38:10.543Z,99.18
2023-03-23T07:39:11.044Z,99.11
2023-03-23T07:40:10.529Z,99.11
2023-03-23T07:41:10.499Z,99.58
2023-03-23T07:42:10.491Z,99.84
2023-03-23T07:43:10.488Z,99.68
2023-03-23T07:44:10.473Z,99.99
2023-03-23T07:45:10.454Z,99.07
2023-03-23T07:46:10.426Z,99.32
2023-03-23T07:47:10.418Z,99.84
2023-03-23T07:48:20.966Z,99.68
2023-03-23T07:49:10.407Z,99.48
2023-03-23T07:50:10.368Z,98.97
2023-03-23T07:51:10.389Z,99.73
2023-03-23T07:52:10.368Z,99.99
2023-03-23T07:53:10.339Z,99.99
2023-03-23T07:54:10.347Z,99.99
2023-03-23T07:55:10.313Z,99.99
2023-03-23T07:56:10.308Z,99.99
2023-03-23T07:57:10.306Z,99.99
2023-03-23T07:58:10.284Z,99.99
2023-03-23T07:59:10.281Z,99.99
2023-03-23T08:00:10.239Z,99.99
2023-03-23T08:01:10.234Z,99.99
2023-03-23T08:02:10.237Z,99.99
2023-03-23T08:03:10.201Z,99.99
2023-03-23T08:04:10.236Z,99.99
2023-03-23T08:05:10.183Z,99.99
2023-03-23T08:06:10.179Z,99.99
2023-03-23T08:07:10.143Z,99.99
2023-03-23T08:08:10.158Z,99.99
2023-03-23T08:09:10.153Z,99.99
2023-03-23T08:10:10.141Z,99.99
2023-03-23T08:11:10.096Z,99.99
2023-03-23T08:12:10.087Z,99.99
2023-03-23T08:13:10.066Z,99.99
2023-03-23T08:14:10.076Z,99.99
2023-03-23T08:15:10.038Z,99.99
2023-03-23T08:16:10.040Z,99.99
2023-03-23T08:17:10.027Z,99.99
2023-03-23T08:18:09.993Z,99.99
2023-03-23T08:19:10.018Z,99.99
2023-03-23T08:20:09.992Z,99.99
2023-03-23T08:21:09.953Z,99.99
2023-03-23T08:22:09.947Z,99.99
2023-03-23T08:23:09.944Z,99.99
2023-03-23T08:24:09.966Z,99.99
2023-03-23T08:25:09.960Z,99.99
2023-03-23T08:26:09.905Z,99.99
2023-03-23T08:27:09.893Z,99.99
2023-03-23T08:28:09.874Z,99.99
2023-03-23T08:29:09.985Z,99.99
2023-03-23T08:30:09.862Z,99.99
2023-03-23T08:31:09.826Z,99.99
2023-03-23T08:32:09.813Z,99.99
2023-03-23T08:33:09.803Z,99.99
2023-03-23T08:34:09.975Z,99.99
2023-03-23T08:35:09.776Z,99.99
2023-03-23T08:36:09.788Z,99.99
2023-03-23T08:37:09.755Z,99.99
2023-03-23T08:38:09.740Z,99.99
2023-03-23T08:39:09.745Z,99.99
2023-03-23T08:40:09.777Z,99.99
2023-03-23T08:41:09.694Z,99.99
2023-03-23T08:42:09.712Z,99.99
2023-03-23T08:43:09.694Z,99.99
2023-03-23T08:44:09.666Z,99.99
2023-03-23T08:45:09.657Z,99.99
2023-03-23T08:46:09.638Z,99.95
2023-03-23T08:47:09.604Z,98.83
2023-03-23T08:48:09.617Z,98.27
2023-03-23T08:49:09.623Z,98.77
2023-03-23T08:50:09.578Z,99.14
2023-03-23T08:51:09.555Z,98.68
2023-03-23T08:52:09.548Z,99.54
2023-03-23T08:53:09.530Z,99.24
2023-03-23T08:54:09.535Z,99.99
2023-03-23T08:55:09.502Z,99.90
2023-03-23T08:56:09.503Z,99.99
2023-03-23T08:57:09.488Z,99.99
2023-03-23T08:58:09.478Z,99.99
2023-03-23T08:59:09.466Z,99.99
2023-03-23T09:00:09.442Z,99.18
2023-03-23T09:01:09.466Z,99.59
2023-03-23T09:02:09.409Z,99.69
2023-03-23T09:03:09.400Z,99.99
2023-03-23T09:04:09.412Z,99.69
2023-03-23T09:05:09.389Z,99.54
2023-03-23T09:06:09.375Z,99.95
2023-03-23T09:07:09.338Z,99.99
2023-03-23T09:08:09.330Z,99.99
2023-03-23T09:09:09.336Z,99.64
2023-03-23T09:10:09.326Z,99.74
2023-03-23T09:11:09.295Z,99.33
2023-03-23T09:12:09.275Z,99.54
2023-03-23T09:13:09.258Z,99.99
2023-03-23T09:14:09.293Z,99.99
2023-03-23T09:15:09.245Z,99.99
2023-03-23T09:16:09.248Z,99.99
2023-03-23T09:17:10.513Z,99.99
2023-03-23T09:18:09.209Z,99.99
2023-03-23T09:19:09.219Z,99.99
2023-03-23T09:20:09.169Z,99.99
2023-03-23T09:21:18.902Z,99.99
2023-03-23T09:22:09.167Z,99.99
2023-03-23T09:23:09.140Z,99.68
2023-03-23T09:24:09.168Z,99.99
2023-03-23T09:25:09.257Z,99.99
2023-03-23T09:26:09.103Z,99.99
2023-03-23T09:27:09.102Z,99.99
2023-03-23T09:28:09.093Z,99.99
2023-03-23T09:29:09.058Z,99.99
2023-03-23T09:30:09.042Z,99.99
2023-03-23T09:31:09.027Z,99.99
2023-03-23T09:32:09.052Z,99.99
2023-03-23T09:33:08.992Z,99.99
2023-03-23T09:34:09.022Z,99.99
2023-03-23T09:35:08.970Z,99.99
2023-03-23T09:36:08.993Z,99.99
2023-03-23T09:37:08.943Z,99.99
2023-03-23T09:38:08.946Z,99.99
2023-03-23T09:39:08.974Z,99.84
2023-03-23T09:40:08.925Z,99.99
2023-03-23T09:41:08.906Z,99.99
2023-03-23T09:42:08.909Z,99.99
2023-03-23T09:43:08.914Z,99.99
2023-03-23T09:44:08.898Z,99.99
2023-03-23T09:45:08.849Z,99.99
2023-03-23T09:46:08.840Z,99.99
2023-03-23T09:47:08.809Z,99.99
2023-03-23T09:48:08.837Z,99.99
2023-03-23T09:49:08.829Z,99.99
2023-03-23T09:50:08.783Z,99.99
2023-03-23T09:51:08.760Z,99.99
2023-03-23T09:52:08.736Z,99.99
2023-03-23T09:53:08.734Z,99.99
2023-03-23T09:54:08.786Z,99.89
2023-03-23T09:55:08.728Z,99.89
2023-03-23T09:56:08.689Z,99.99
2023-03-23T09:57:08.694Z,99.99
2023-03-23T09:58:08.667Z,99.99
2023-03-23T09:59:08.658Z,99.99
2023-03-23T10:00:08.699Z,99.99
2023-03-23T10:01:08.657Z,99.99
2023-03-23T10:02:08.600Z,99.99
2023-03-23T10:03:08.591Z,99.99
2023-03-23T10:04:08.591Z,99.99
2023-03-23T10:05:08.610Z,99.40
2023-03-23T10:06:08.574Z,98.48
2023-03-23T10:07:08.550Z,98.58
2023-03-23T10:08:08.544Z,99.19
2023-03-23T10:09:08.510Z,98.63
2023-03-23T10:10:08.539Z,99.65
2023-03-23T10:11:08.490Z,99.99
2023-03-23T10:12:08.492Z,99.99
2023-03-23T10:13:08.467Z,99.99
2023-03-23T10:14:08.477Z,99.09
2023-03-23T10:15:08.457Z,99.14
2023-03-23T10:16:08.446Z,99.99
2023-03-23T10:17:10.062Z,98.43
2023-03-23T10:18:08.391Z,98.93
2023-03-23T10:19:08.402Z,99.99
2023-03-23T10:20:08.402Z,99.79
2023-03-23T10:21:08.391Z,99.99
2023-03-23T10:22:08.358Z,99.95
2023-03-23T10:23:08.326Z,99.99
2023-03-23T10:24:08.343Z,99.70
2023-03-23T10:25:08.329Z,98.94
2023-03-23T10:26:08.321Z,98.54
2023-03-23T10:27:08.267Z,98.33
2023-03-23T10:28:08.300Z,98.13
2023-03-23T10:29:08.270Z,99.04
2023-03-23T10:30:08.257Z,98.28
2023-03-23T10:31:08.237Z,96.70
2023-03-23T10:32:08.212Z,97.31
2023-03-23T10:33:08.203Z,98.02
2023-03-23T10:34:08.187Z,97.82
2023-03-23T10:35:08.190Z,96.84
2023-03-23T10:36:08.164Z,97.87
2023-03-23T10:37:08.163Z,98.58
2023-03-23T10:38:08.130Z,98.43
2023-03-23T10:39:08.110Z,99.85
2023-03-23T10:40:08.126Z,99.91
2023-03-23T10:41:08.084Z,99.49
2023-03-23T10:42:08.083Z,99.99
2023-03-23T10:43:08.093Z,99.99
2023-03-23T10:44:08.050Z,99.99
2023-03-23T10:45:08.058Z,99.99
2023-03-23T10:46:08.079Z,99.99
2023-03-23T10:47:08.008Z,99.99
2023-03-23T10:48:08.011Z,99.99
2023-03-23T10:49:08.002Z,99.99
2023-03-23T10:50:08.008Z,99.99
2023-03-23T10:51:07.985Z,99.14
2023-03-23T10:52:07.977Z,98.07
2023-03-23T10:53:07.952Z,96.64
2023-03-23T10:54:09.155Z,97.21
2023-03-23T10:55:07.922Z,97.52
2023-03-23T10:56:07.940Z,97.98
2023-03-23T10:57:07.865Z,97.11
2023-03-23T10:58:07.865Z,96.96
2023-03-23T10:59:07.858Z,96.50
2023-03-23T11:00:07.898Z,97.62
2023-03-23T11:01:07.845Z,98.27
2023-03-23T11:02:08.556Z,98.13
2023-03-23T11:03:07.828Z,98.23
2023-03-23T11:04:07.787Z,99.04
2023-03-23T11:05:09.542Z,98.99
2023-03-23T11:06:07.800Z,99.29
2023-03-23T11:07:07.763Z,99.50
2023-03-23T11:08:07.739Z,98.99
2023-03-23T11:09:07.725Z,97.46
2023-03-23T11:10:07.713Z,97.56
2023-03-23T11:11:07.704Z,97.71
2023-03-23T11:12:07.729Z,99.50
2023-03-23T11:13:07.685Z,98.93
2023-03-23T11:14:07.687Z,98.99
2023-03-23T11:15:07.664Z,98.52
2023-03-23T11:16:07.655Z,99.04
2023-03-23T11:17:15.719Z,98.32
2023-03-23T11:18:07.604Z,98.83
2023-03-23T11:19:07.601Z,98.52
2023-03-23T11:20:07.603Z,98.63
2023-03-23T11:21:07.569Z,98.38
2023-03-23T11:22:07.575Z,98.18
2023-03-23T11:23:08.116Z,96.84
2023-03-23T11:24:10.009Z,97.46
2023-03-23T11:25:07.501Z,97.36
2023-03-23T11:26:07.500Z,96.34
2023-03-23T11:27:07.480Z,96.64
2023-03-23T11:28:07.477Z,97.41
2023-03-23T11:29:07.491Z,96.19
2023-03-23T11:30:07.462Z,94.26
2023-03-23T11:31:07.442Z,94.01
2023-03-23T11:32:07.412Z,93.80
2023-03-23T11:33:07.433Z,94.11
2023-03-23T11:34:07.404Z,95.23
2023-03-23T11:35:16.234Z,95.03
2023-03-23T11:36:07.431Z,95.33
2023-03-23T11:37:07.374Z,94.82
2023-03-23T11:38:07.331Z,96.30
2023-03-23T11:39:07.320Z,96.34
2023-03-23T11:40:07.421Z,96.84
2023-03-23T11:41:07.301Z,97.46
2023-03-23T11:42:09.543Z,98.58
2023-03-23T11:43:07.272Z,98.52
2023-03-23T11:44:07.290Z,98.68
2023-03-23T11:45:07.259Z,97.87
2023-03-23T11:46:07.228Z,96.89
2023-03-23T11:47:07.234Z,96.79
2023-03-23T11:48:07.237Z,96.94
2023-03-23T11:49:19.033Z,97.34
2023-03-23T11:50:07.173Z,97.91
2023-03-23T11:51:07.198Z,97.91
2023-03-23T11:52:07.180Z,96.95
2023-03-23T11:53:07.142Z,96.69
2023-03-23T11:54:07.164Z,97.71
2023-03-23T11:55:07.096Z,98.02
2023-03-23T11:56:07.146Z,98.22
2023-03-23T11:57:07.102Z,98.16
2023-03-23T11:58:07.070Z,98.77
2023-03-23T11:59:07.077Z,98.68
2023-03-23T12:00:07.064Z,98.98
2023-03-23T12:01:07.024Z,99.18
2023-03-23T12:02:16.905Z,98.63
2023-03-23T12:03:07.006Z,97.30
2023-03-23T12:04:06.988Z,96.23
2023-03-23T12:05:07.009Z,95.97
2023-03-23T12:06:06.975Z,95.98
2023-03-23T12:07:06.950Z,94.66
2023-03-23T12:08:06.954Z,95.33
2023-03-23T12:09:06.931Z,93.15
2023-03-23T12:10:06.901Z,91.99
2023-03-23T12:11:07.121Z,92.04
2023-03-23T12:12:06.878Z,91.49
2023-03-23T12:13:06.855Z,89.09
2023-03-23T12:14:06.878Z,90.60
2023-03-23T12:15:06.839Z,91.17
2023-03-23T12:16:06.840Z,91.27
2023-03-23T12:17:06.864Z,90.25
2023-03-23T12:18:06.793Z,91.11
2023-03-23T12:19:06.798Z,91.64
2023-03-23T12:20:06.822Z,89.91
2023-03-23T12:21:06.762Z,90.16
2023-03-23T12:22:06.738Z,89.85
2023-03-23T12:23:06.781Z,90.77
2023-03-23T12:24:07.662Z,89.59
2023-03-23T12:25:06.700Z,90.56
2023-03-23T12:26:06.725Z,90.30
2023-03-23T12:27:06.676Z,89.79
2023-03-23T12:28:06.665Z,90.09
2023-03-23T12:29:06.670Z,90.86
2023-03-23T12:30:06.644Z,89.69
2023-03-23T12:31:06.654Z,90.09
2023-03-23T12:32:06.610Z,91.22
2023-03-23T12:33:06.645Z,91.31
2023-03-23T12:34:06.601Z,90.24
2023-03-23T12:35:06.583Z,90.69
2023-03-23T12:36:06.576Z,91.26
2023-03-23T12:37:06.537Z,91.30
2023-03-23T12:38:06.584Z,91.66
2023-03-23T12:39:06.532Z,91.66
2023-03-23T12:40:06.491Z,90.28
2023-03-23T12:41:06.524Z,91.30
2023-03-23T12:42:06.489Z,92.05
2023-03-23T12:43:06.485Z,92.57
2023-03-23T12:44:06.482Z,90.73
2023-03-23T12:45:06.450Z,91.50
2023-03-23T12:46:06.464Z,91.09
2023-03-23T12:47:06.465Z,90.53
2023-03-23T12:48:06.406Z,90.79
2023-03-23T12:49:06.380Z,91.09
2023-03-23T12:50:06.402Z,90.69
2023-03-23T12:51:06.360Z,90.55
2023-03-23T12:52:06.332Z,89.22